Time;durP1;ratioP1;P1;durP2;ratioP2;P2;SDS_P1;SDS_P2;PMS_P1;PMS_P2;Temp;Humidity;BMP_temperature;BMP_pressure;BME280_temperature;BME280_humidity;BME280_pressure;Samples;Min_cycle;Max_cycle;Signal;HPM_P1;HPM_P2
2021/12/17 00:04:31;;;;;;;161.10;148.55;;;;;;;3.88;100.00;101918.91;4994570;28;20085;-81
2021/12/17 00:06:58;;;;;;;141.20;129.10;;;;;;;2.93;100.00;101919.06;5001700;28;20058;-82
2021/12/17 00:09:24;;;;;;;136.77;125.78;;;;;;;3.16;100.00;101925.88;5005775;28;20113;-81
2021/12/17 00:11:51;;;;;;;165.48;152.68;;;;;;;3.82;100.00;101935.22;5000698;28;20137;-81
2021/12/17 00:14:26;;;;;;;150.60;139.00;;;;;;;3.51;100.00;101923.84;5003933;28;20050;-81
2021/12/17 00:16:54;;;;;;;175.88;162.15;;;;;;;3.80;100.00;101931.88;4998961;28;20050;-83
2021/12/17 00:19:33;;;;;;;116.32;105.65;;;;;;;3.21;100.00;101926.31;5000551;28;20566;-80
2021/12/17 00:49:28;;;;;;;158.70;145.65;;;;;;;2.37;100.00;101946.31;5001847;28;20049;-81
2021/12/17 00:52:00;;;;;;;154.25;140.90;;;;;;;2.32;100.00;101945.00;4999703;28;20042;-80
2021/12/17 00:54:34;;;;;;;165.60;151.93;;;;;;;2.23;100.00;101947.41;4999724;28;20133;-82
2021/12/17 00:57:07;;;;;;;128.40;116.55;;;;;;;2.62;100.00;101939.94;5002271;28;20141;-81
2021/12/17 00:59:35;;;;;;;133.25;120.63;;;;;;;2.53;100.00;101941.50;5005172;28;20096;-79
2021/12/17 01:02:06;;;;;;;138.10;125.43;;;;;;;2.43;100.00;101937.97;4997816;28;20077;-80
2021/12/17 01:04:36;;;;;;;169.80;154.55;;;;;;;2.49;100.00;101934.84;5001190;28;20050;-81
2021/12/17 01:07:05;;;;;;;165.70;151.43;;;;;;;2.30;100.00;101932.03;4997912;28;20108;-82
2021/12/17 01:09:33;;;;;;;158.45;144.15;;;;;;;2.30;100.00;101929.41;5000407;28;20093;-81
2021/12/17 01:12:00;;;;;;;154.30;141.43;;;;;;;3.28;100.00;101925.81;4997946;28;20124;-80
2021/12/17 01:14:29;;;;;;;158.18;144.35;;;;;;;2.60;100.00;101933.13;5000387;28;20109;-82
2021/12/17 01:16:57;;;;;;;157.63;143.55;;;;;;;2.39;100.00;101930.44;4998622;28;20039;-81
2021/12/17 01:19:42;;;;;;;139.57;126.68;;;;;;;2.59;100.00;101931.47;4999608;28;20054;-80
2021/12/17 01:22:40;;;;;;;140.10;126.88;;;;;;;2.34;100.00;101930.84;5002140;28;20077;-80
2021/12/17 01:25:07;;;;;;;144.75;131.20;;;;;;;2.53;100.00;101917.06;5001091;28;20046;-83
2021/12/17 01:35:46;;;;;;;168.38;153.90;;;;;;;2.21;100.00;101898.66;4994284;28;20054;-80
2021/12/17 01:41:24;;;;;;;160.57;145.93;;;;;;;2.14;100.00;101900.13;4990535;28;20057;-82
2021/12/17 01:43:52;;;;;;;175.32;159.90;;;;;;;2.14;100.00;101889.63;4999990;28;20054;-80
2021/12/17 01:46:23;;;;;;;164.82;150.20;;;;;;;2.10;100.00;101894.28;4999126;28;20048;-83
2021/12/17 01:49:03;;;;;;;166.32;150.75;;;;;;;2.02;100.00;101894.88;4997387;28;20480;-80
2021/12/17 02:00:03;;;;;;;159.85;146.48;;;;;;;3.11;100.00;101866.81;4989590;28;20395;-80
2021/12/17 02:02:32;;;;;;;141.13;129.10;;;;;;;2.51;100.00;101863.91;4990834;28;20057;-80
2021/12/17 02:04:59;;;;;;;152.80;139.60;;;;;;;2.58;100.00;101854.59;5001123;28;20125;-80
2021/12/17 02:07:27;;;;;;;142.02;129.88;;;;;;;2.68;100.00;101834.50;4999028;28;20053;-82
2021/12/17 02:12:59;;;;;;;153.05;140.00;;;;;;;3.37;100.00;101825.22;4997361;28;20065;-82
2021/12/17 02:21:43;;;;;;;145.07;132.48;;;;;;;3.84;100.00;101839.50;4999902;28;20097;-80
2021/12/17 02:30:00;;;;;;;159.68;146.60;;;;;;;3.34;100.00;101820.25;5000412;28;20053;-82
2021/12/17 02:32:30;;;;;;;155.10;141.82;;;;;;;2.68;100.00;101815.31;4986820;28;20117;-83
2021/12/17 02:37:49;;;;;;;141.35;128.63;;;;;;;3.67;100.00;101811.25;4992253;28;20050;-82
2021/12/17 02:42:27;;;;;;;129.07;116.72;;;;;;;3.50;100.00;101801.34;4997851;28;20543;-82
2021/12/17 02:45:51;;;;;;;140.50;127.95;;;;;;;2.61;100.00;101788.75;4996914;28;20069;-82
2021/12/17 02:48:20;;;;;;;142.60;129.60;;;;;;;2.34;100.00;101784.00;4996781;28;20077;-80
2021/12/17 02:50:49;;;;;;;148.80;135.18;;;;;;;2.13;100.00;101776.09;4997105;28;20124;-82
2021/12/17 02:53:20;;;;;;;150.57;136.25;;;;;;;2.27;100.00;101774.97;4996669;28;20061;-79
2021/12/17 02:55:52;;;;;;;145.68;132.50;;;;;;;2.49;100.00;101781.91;4991485;28;20058;-79
2021/12/17 02:58:20;;;;;;;133.73;120.40;;;;;;;2.17;100.00;101785.38;5000156;28;20054;-79
2021/12/17 03:01:15;;;;;;;132.43;119.90;;;;;;;2.45;100.00;101780.47;5096389;23;20858;-91
2021/12/17 03:03:51;;;;;;;142.13;128.75;;;;;;;2.23;100.00;101781.41;4952772;28;20043;-91
2021/12/17 03:06:18;;;;;;;144.20;130.02;;;;;;;2.22;100.00;101785.00;4959423;28;20058;-91
2021/12/17 03:08:51;;;;;;;149.90;135.18;;;;;;;2.69;100.00;101783.72;4961353;28;20050;-91
2021/12/17 03:11:20;;;;;;;155.10;140.77;;;;;;;2.38;100.00;101787.19;4969783;28;20051;-92
2021/12/17 03:13:51;;;;;;;151.57;137.10;;;;;;;2.28;100.00;101784.50;4961042;28;20050;-91
2021/12/17 03:16:31;;;;;;;151.95;138.27;;;;;;;2.38;100.00;101769.66;4954812;28;20047;-91
2021/12/17 03:19:05;;;;;;;149.02;135.23;;;;;;;2.24;100.00;101756.84;4947346;29;20058;-92
2021/12/17 03:24:24;;;;;;;148.73;135.35;;;;;;;2.45;100.00;101752.50;4956172;28;20055;-91
2021/12/17 03:26:50;;;;;;;;;;;;;;;2.31;100.00;101744.09;4949050;28;20051;-91
2021/12/17 03:29:19;;;;;;;144.57;130.80;;;;;;;2.27;100.00;101733.03;4962980;28;19926;-92
2021/12/17 03:31:46;;;;;;;146.30;132.73;;;;;;;2.73;100.00;101752.78;4952410;29;20503;-91
2021/12/17 03:34:23;;;;;;;140.43;127.35;;;;;;;2.45;100.00;101749.88;4952063;28;20059;-91
2021/12/17 03:36:57;;;;;;;142.77;129.70;;;;;;;2.41;100.00;101750.22;4966423;28;20057;-91
2021/12/17 03:39:30;;;;;;;142.75;130.18;;;;;;;2.70;100.00;101743.38;4953880;28;20055;-91
2021/12/17 03:41:58;;;;;;;143.57;130.90;;;;;;;2.74;100.00;101755.28;4952319;29;20051;-92
2021/12/17 03:44:39;;;;;;;138.70;125.97;;;;;;;2.66;100.00;101759.50;4952831;28;20054;-91
2021/12/17 03:47:06;;;;;;;127.68;115.32;;;;;;;2.50;100.00;101749.47;4942381;28;20062;-92
2021/12/17 03:49:40;;;;;;;129.77;117.43;;;;;;;2.75;100.00;101750.84;4952203;29;20059;-92
2021/12/17 03:52:08;;;;;;;172.68;158.45;;;;;;;2.52;100.00;101744.94;4947906;29;20493;-92
2021/12/17 03:54:38;;;;;;;171.98;157.52;;;;;;;2.61;100.00;101744.16;4953411;28;20409;-92
2021/12/17 03:57:17;;;;;;;159.23;145.05;;;;;;;2.71;100.00;101739.78;4962186;28;20584;-91
2021/12/17 03:59:45;;;;;;;168.48;154.65;;;;;;;3.04;100.00;101750.19;4951397;29;20049;-92
2021/12/17 04:02:12;;;;;;;172.20;157.95;;;;;;;2.39;100.00;101744.28;4943563;28;20060;-91
2021/12/17 04:04:39;;;;;;;174.85;159.70;;;;;;;2.55;100.00;101749.91;4920263;29;20448;-92
2021/12/17 04:07:06;;;;;;;160.27;146.07;;;;;;;2.75;100.00;101756.97;4919362;29;20111;-92
2021/12/17 04:09:33;;;;;;;164.60;150.50;;;;;;;3.43;100.00;101770.38;4930879;29;20115;-92
2021/12/17 04:12:11;;;;;;;154.73;141.20;;;;;;;3.26;100.00;101765.75;4933029;29;20077;-91
2021/12/17 04:14:44;;;;;;;169.95;155.95;;;;;;;3.50;100.00;101769.84;4946995;29;20044;-92
2021/12/17 04:17:22;;;;;;;160.60;147.10;;;;;;;2.67;100.00;101772.50;4944606;29;20048;-91
2021/12/17 04:19:51;;;;;;;158.48;145.10;;;;;;;2.55;100.00;101770.06;4944732;28;20102;-91
2021/12/17 04:22:20;;;;;;;136.20;123.78;;;;;;;2.58;100.00;101775.06;4936949;29;20048;-92
2021/12/17 04:24:47;;;;;;;142.77;129.88;;;;;;;2.50;100.00;101779.13;4939741;29;20139;-92
2021/12/17 04:27:31;;;;;;;137.40;124.50;;;;;;;2.58;100.00;101772.44;4944618;28;20535;-92
2021/12/17 04:29:58;;;;;;;136.63;123.90;;;;;;;2.60;100.00;101773.94;4920654;29;20052;-92
2021/12/17 04:32:28;;;;;;;131.60;119.80;;;;;;;2.47;100.00;101768.06;4934790;29;20478;-92
2021/12/17 04:34:56;;;;;;;139.57;126.38;;;;;;;2.55;100.00;101770.06;4919758;29;20051;-91
2021/12/17 04:37:24;;;;;;;138.95;126.43;;;;;;;2.60;100.00;101771.34;4931491;29;20119;-92
2021/12/17 04:39:52;;;;;;;139.55;126.25;;;;;;;2.61;100.00;101772.19;4917872;29;20071;-91
2021/12/17 04:42:26;;;;;;;141.70;129.15;;;;;;;2.49;100.00;101758.31;4918760;29;20134;-91
2021/12/17 04:44:58;;;;;;;144.80;131.90;;;;;;;2.62;100.00;101763.34;5030717;23;20057;-83
2021/12/17 04:58:34;;;;;;;146.27;132.85;;;;;;;2.39;100.00;101755.63;4931041;29;20519;-80
2021/12/17 05:01:08;;;;;;;146.75;133.88;;;;;;;2.46;100.00;101755.94;4996514;28;20061;-81
2021/12/17 05:03:35;;;;;;;126.47;114.70;;;;;;;2.49;100.00;101766.16;5033209;28;20053;-81
2021/12/17 05:06:02;;;;;;;136.40;123.93;;;;;;;2.36;100.00;101763.75;5033377;28;20053;-80
2021/12/17 05:08:29;;;;;;;137.23;125.22;;;;;;;2.60;100.00;101773.13;5032830;28;20046;-80
2021/12/17 05:11:18;;;;;;;138.43;125.75;;;;;;;2.44;100.00;101770.97;5020827;28;20073;-81
2021/12/17 05:19:42;;;;;;;147.98;134.43;;;;;;;2.32;100.00;101753.63;5025145;28;20509;-82
2021/12/17 05:22:11;;;;;;;167.20;153.20;;;;;;;2.13;100.00;101762.16;5029573;28;20108;-81
2021/12/17 05:37:32;;;;;;;155.02;141.02;;;;;;;1.84;100.00;101786.31;5092047;27;20414;-79
2021/12/17 05:39:59;;;;;;;160.30;146.25;;;;;;;1.64;100.00;101779.22;5075036;28;20060;-82
2021/12/17 05:42:26;;;;;;;157.98;143.98;;;;;;;1.61;100.00;101782.91;5063865;28;20056;-80
2021/12/17 05:44:58;;;;;;;165.85;150.85;;;;;;;1.56;100.00;101778.03;5075965;28;20048;-82
2021/12/17 05:47:25;;;;;;;160.77;146.43;;;;;;;1.70;100.00;101779.56;5071054;28;20048;-80
2021/12/17 05:49:52;;;;;;;164.52;150.45;;;;;;;1.65;100.00;101771.22;5070655;28;20102;-81
2021/12/17 05:52:20;;;;;;;166.60;151.52;;;;;;;1.65;100.00;101765.16;5072870;28;20551;-81
2021/12/17 05:54:49;;;;;;;161.63;146.52;;;;;;;1.65;100.00;101744.22;5071777;28;20091;-79
2021/12/17 05:57:15;;;;;;;162.70;147.20;;;;;;;1.52;100.00;101739.94;5074796;28;20044;-79
2021/12/17 05:59:47;;;;;;;162.02;146.57;;;;;;;1.60;100.00;101732.31;5077440;28;20045;-81
2021/12/17 06:02:18;;;;;;;165.57;149.97;;;;;;;1.51;100.00;101730.44;5070252;28;20105;-82
2021/12/17 06:04:47;;;;;;;170.40;154.00;;;;;;;1.52;100.00;101739.13;5063656;28;20360;-81
2021/12/17 06:07:25;;;;;;;177.38;159.88;;;;;;;1.60;100.00;101744.56;5076946;28;20049;-80
2021/12/17 06:09:58;;;;;;;157.07;142.52;;;;;;;1.64;100.00;101750.41;5075373;28;20128;-82
2021/12/17 06:12:25;;;;;;;154.23;139.70;;;;;;;1.63;100.00;101752.16;5070723;28;20057;-80
2021/12/17 06:14:51;;;;;;;164.70;148.15;;;;;;;1.66;100.00;101751.94;5073353;28;20045;-80
2021/12/17 06:17:18;;;;;;;154.18;139.65;;;;;;;1.51;100.00;101751.38;5070827;28;20448;-81
2021/12/17 06:19:45;;;;;;;161.88;146.00;;;;;;;1.55;100.00;101736.25;5073323;28;20052;-82
2021/12/17 06:22:12;;;;;;;161.43;145.70;;;;;;;1.50;100.00;101749.69;5072223;28;20045;-80
2021/12/17 06:24:40;;;;;;;178.77;161.60;;;;;;;1.46;100.00;101747.47;5072586;28;20058;-80
2021/12/17 06:27:09;;;;;;;194.57;176.32;;;;;;;1.58;100.00;101742.06;5071270;28;20538;-82
2021/12/17 06:29:35;;;;;;;155.95;140.10;;;;;;;1.42;100.00;101754.69;5059123;28;20106;-79
2021/12/17 06:32:02;;;;;;;153.43;137.45;;;;;;;1.47;100.00;101751.72;5017212;28;20057;-78
2021/12/17 06:34:29;;;;;;;156.05;139.57;;;;;;;1.44;100.00;101754.59;5016758;28;20046;-79
2021/12/17 06:36:56;;;;;;;160.02;143.00;;;;;;;1.23;100.00;101751.88;5006953;28;20055;-80
2021/12/17 06:39:24;;;;;;;153.40;136.93;;;;;;;1.39;100.00;101760.19;5003798;28;20096;-83
2021/12/17 06:41:50;;;;;;;160.55;143.55;;;;;;;1.67;100.00;101764.09;5000534;28;20058;-81
2021/12/17 06:44:22;;;;;;;157.32;140.25;;;;;;;1.90;100.00;101764.00;5002076;28;20086;-80
2021/12/17 06:46:56;;;;;;;174.35;156.98;;;;;;;1.99;100.00;101758.84;5013401;28;20045;-81
2021/12/17 06:49:29;;;;;;;174.02;156.30;;;;;;;2.09;100.00;101755.50;5013568;28;20050;-82
2021/12/17 06:55:00;;;;;;;161.05;145.38;;;;;;;2.19;100.00;101738.06;4995597;28;20116;-81
2021/12/17 07:00:33;;;;;;;167.23;151.13;;;;;;;2.28;100.00;101739.94;5004553;28;20098;-81
2021/12/17 07:11:19;;;;;;;210.20;186.13;;;;;;;3.07;100.00;101735.00;4994780;28;20057;-79
2021/12/17 07:22:21;;;;;;;171.65;154.65;;;;;;;2.64;100.00;101732.59;4930484;28;20531;-78
2021/12/17 07:28:03;;;;;;;174.15;156.98;;;;;;;2.58;100.00;101736.56;4948497;28;20086;-79
2021/12/17 07:33:15;;;;;;;184.38;167.95;;;;;;;2.77;100.00;101741.06;4959979;28;20062;-82
2021/12/17 07:35:52;;;;;;;174.27;158.32;;;;;;;2.84;100.00;101744.00;4958187;29;20499;-79
2021/12/17 07:38:38;;;;;;;180.90;163.52;;;;;;;2.93;100.00;101737.97;4961860;28;20062;-80
2021/12/17 07:41:06;;;;;;;167.57;152.95;;;;;;;2.90;100.00;101746.09;4959913;28;20039;-78
2021/12/17 07:43:37;;;;;;;169.82;156.27;;;;;;;2.91;100.00;101750.41;4958020;28;20047;-80
2021/12/17 07:46:06;;;;;;;186.10;170.88;;;;;;;3.03;100.00;101744.09;4963701;28;20086;-78
2021/12/17 07:48:35;;;;;;;190.88;175.43;;;;;;;3.06;100.00;101753.53;4965690;28;20113;-77
2021/12/17 07:51:06;;;;;;;175.95;161.50;;;;;;;3.09;100.00;101748.84;4958586;28;20527;-80
2021/12/17 07:53:33;;;;;;;200.60;184.85;;;;;;;3.20;100.00;101753.16;4962383;28;20043;-80
2021/12/17 07:56:02;;;;;;;197.50;182.68;;;;;;;3.13;100.00;101749.41;4957549;28;20079;-78
2021/12/17 07:58:29;;;;;;;201.80;185.80;;;;;;;3.19;100.00;101754.13;4954199;28;20173;-77
2021/12/17 08:00:57;;;;;;;175.40;161.18;;;;;;;3.09;100.00;101754.09;4957103;28;20083;-79
2021/12/17 08:03:24;;;;;;;185.13;169.55;;;;;;;3.12;100.00;101751.19;4957568;28;20051;-77
2021/12/17 08:05:52;;;;;;;202.13;186.18;;;;;;;3.26;100.00;101743.91;4958621;28;20074;-80
2021/12/17 08:08:19;;;;;;;192.13;177.20;;;;;;;3.07;100.00;101747.28;4956399;28;20114;-79
2021/12/17 08:10:48;;;;;;;191.70;176.95;;;;;;;3.19;100.00;101738.38;4956946;28;20047;-79
2021/12/17 08:13:19;;;;;;;197.68;181.18;;;;;;;3.24;100.00;101732.69;4952903;29;20083;-80
2021/12/17 08:16:06;;;;;;;206.33;190.67;;;;;;;3.04;100.00;101744.94;4958825;28;20504;-80
2021/12/17 08:26:57;;;;;;;252.73;232.48;;;;;;;2.99;100.00;101732.19;4955478;28;20043;-82
2021/12/17 08:29:42;;;;;;;276.70;253.65;;;;;;;3.08;100.00;101730.56;4955575;28;20056;-80
2021/12/17 08:32:10;;;;;;;284.50;260.60;;;;;;;2.92;100.00;101721.38;4957178;28;20069;-80
2021/12/17 08:34:37;;;;;;;289.10;265.60;;;;;;;2.94;100.00;101718.66;4954103;28;20051;-79
2021/12/17 08:37:06;;;;;;;296.38;272.45;;;;;;;2.91;100.00;101722.38;4961460;28;20059;-80
2021/12/17 08:39:33;;;;;;;278.67;255.98;;;;;;;2.96;100.00;101717.53;4959291;28;20083;-82
2021/12/17 08:42:01;;;;;;;290.70;267.65;;;;;;;2.93;100.00;101704.66;4952820;29;20118;-80
2021/12/17 08:44:29;;;;;;;268.00;246.02;;;;;;;3.06;100.00;101706.28;4954463;28;20066;-79
2021/12/17 08:46:56;;;;;;;267.88;245.98;;;;;;;3.05;100.00;101701.97;4959284;28;20130;-80
2021/12/17 08:49:22;;;;;;;259.85;238.68;;;;;;;3.02;100.00;101697.81;4958596;28;20086;-79
2021/12/17 08:51:49;;;;;;;218.90;198.98;;;;;;;3.07;100.00;101698.25;4956819;28;20051;-77
2021/12/17 08:54:19;;;;;;;221.18;201.15;;;;;;;3.00;100.00;101694.50;4961348;28;20047;-80
2021/12/17 08:56:49;;;;;;;212.70;193.98;;;;;;;3.11;100.00;101688.31;4962048;28;20051;-79
2021/12/17 08:59:18;;;;;;;233.55;213.45;;;;;;;3.11;100.00;101669.94;4955799;28;20051;-80
2021/12/17 09:01:47;;;;;;;243.57;220.45;;;;;;;3.18;100.00;101657.94;4957257;28;20051;-81
2021/12/17 09:04:14;;;;;;;247.43;225.32;;;;;;;3.25;100.00;101655.59;4955176;28;20043;-78
2021/12/17 09:06:43;;;;;;;230.65;211.93;;;;;;;3.26;100.00;101657.25;4956089;28;20181;-80
2021/12/17 09:09:10;;;;;;;229.95;211.23;;;;;;;3.24;100.00;101649.53;4959301;29;20043;-80
2021/12/17 09:11:40;;;;;;;226.75;208.23;;;;;;;3.37;100.00;101644.84;4950777;28;20052;-80
2021/12/17 09:14:07;;;;;;;240.90;220.88;;;;;;;3.52;100.00;101633.94;4955024;29;20047;-80
2021/12/17 09:16:36;;;;;;;245.40;223.48;;;;;;;3.49;100.00;101639.47;4958419;28;20468;-79
2021/12/17 09:19:05;;;;;;;224.10;203.48;;;;;;;3.53;100.00;101623.28;4958421;28;20113;-80
2021/12/17 09:21:32;;;;;;;251.25;223.93;;;;;;;3.61;100.00;101618.19;4955473;29;20044;-78
2021/12/17 09:23:59;;;;;;;253.93;231.50;;;;;;;3.51;100.00;101609.47;4961697;29;20316;-81
2021/12/17 09:26:27;;;;;;;259.40;236.05;;;;;;;3.61;100.00;101617.34;4959362;28;20047;-81
2021/12/17 09:28:58;;;;;;;237.93;216.85;;;;;;;3.53;100.00;101610.16;4956708;29;20125;-80
2021/12/17 09:31:25;;;;;;;244.25;224.02;;;;;;;3.49;100.00;101613.22;4954614;29;20043;-82
2021/12/17 09:33:52;;;;;;;212.90;196.60;;;;;;;3.39;100.00;101615.84;4952488;29;20468;-78
2021/12/17 09:36:19;;;;;;;202.98;186.63;;;;;;;3.46;100.00;101611.69;4955746;28;20055;-81
2021/12/17 09:38:52;;;;;;;219.90;202.50;;;;;;;3.56;100.00;101602.00;4956385;29;20465;-80
2021/12/17 09:41:21;;;;;;;224.07;206.68;;;;;;;3.54;100.00;101608.34;4957747;28;20065;-77
2021/12/17 09:43:48;;;;;;;240.48;222.52;;;;;;;3.64;100.00;101610.03;4956884;28;20555;-79
2021/12/17 09:46:18;;;;;;;257.77;235.38;;;;;;;3.59;100.00;101599.09;4954460;28;20047;-80
2021/12/17 09:48:54;;;;;;;270.23;246.95;;;;;;;3.61;100.00;101591.91;4962342;28;20078;-79
2021/12/17 09:51:22;;;;;;;274.75;253.00;;;;;;;3.59;100.00;101593.00;4956907;28;20105;-80
2021/12/17 09:53:49;;;;;;;279.90;254.82;;;;;;;3.62;100.00;101593.56;4958974;28;20067;-79
2021/12/17 09:56:18;;;;;;;291.08;266.13;;;;;;;3.62;100.00;101588.31;4954052;28;20053;-79
2021/12/17 09:58:47;;;;;;;289.60;266.17;;;;;;;3.60;100.00;101579.75;4957797;28;20083;-79
2021/12/17 10:01:14;;;;;;;294.75;270.83;;;;;;;3.59;100.00;101582.50;4955606;29;20059;-78
2021/12/17 10:03:45;;;;;;;301.00;274.42;;;;;;;3.58;100.00;101568.53;4962183;28;20039;-80
2021/12/17 10:06:22;;;;;;;269.73;241.18;;;;;;;3.55;100.00;101568.81;4956501;28;20551;-77
2021/12/17 10:08:49;;;;;;;270.00;242.70;;;;;;;3.51;100.00;101574.47;4958295;28;20051;-77
2021/12/17 10:11:18;;;;;;;290.45;252.10;;;;;;;3.51;100.00;101562.19;4954785;28;20055;-79
2021/12/17 10:13:45;;;;;;;265.60;238.85;;;;;;;3.54;100.00;101567.19;4943119;28;20043;-80
2021/12/17 10:16:12;;;;;;;250.68;228.80;;;;;;;3.47;100.00;101575.72;4959781;28;20119;-80
2021/12/17 10:18:40;;;;;;;252.98;231.05;;;;;;;3.53;100.00;101576.00;4958059;28;20055;-79
2021/12/17 10:21:12;;;;;;;263.80;241.98;;;;;;;3.53;100.00;101577.81;4957883;28;20111;-79
2021/12/17 10:23:42;;;;;;;265.38;240.27;;;;;;;3.57;100.00;101566.91;4960054;29;20047;-80
2021/12/17 10:26:12;;;;;;;272.55;245.82;;;;;;;3.61;100.00;101555.13;4958731;28;20060;-79
2021/12/17 10:28:53;;;;;;;249.68;226.65;;;;;;;3.58;100.00;101555.41;4958514;28;20118;-79
2021/12/17 10:31:20;;;;;;;277.30;251.30;;;;;;;3.61;100.00;101556.94;4959764;28;20110;-80
2021/12/17 10:33:55;;;;;;;294.70;266.77;;;;;;;3.68;100.00;101558.84;4960868;28;20047;-79
2021/12/17 10:36:32;;;;;;;276.65;251.38;;;;;;;3.62;100.00;101559.41;4957392;28;20421;-80
2021/12/17 10:39:01;;;;;;;272.70;248.30;;;;;;;3.65;100.00;101560.94;4957697;29;20054;-78
2021/12/17 10:41:27;;;;;;;276.88;253.48;;;;;;;3.62;100.00;101563.84;4956467;28;20110;-77
2021/12/17 10:43:59;;;;;;;239.85;216.95;;;;;;;3.57;100.00;101555.53;4958807;28;20058;-80
2021/12/17 10:46:35;;;;;;;253.70;230.97;;;;;;;3.66;100.00;101554.69;4956122;28;20047;-80
2021/12/17 10:49:13;;;;;;;249.23;226.82;;;;;;;3.55;100.00;101549.63;4958575;28;20055;-78
2021/12/17 10:51:47;;;;;;;252.18;230.55;;;;;;;3.61;100.00;101544.63;4958619;29;20531;-79
2021/12/17 10:54:16;;;;;;;256.38;234.27;;;;;;;3.57;100.00;101545.03;4962087;28;20488;-78
2021/12/17 10:56:44;;;;;;;243.82;221.98;;;;;;;3.57;100.00;101543.25;4955807;28;20122;-78
2021/12/17 10:59:13;;;;;;;247.98;226.43;;;;;;;3.54;100.00;101530.41;4956712;28;20130;-78
2021/12/17 11:01:44;;;;;;;234.23;213.65;;;;;;;3.55;100.00;101537.31;4960231;28;20442;-79
2021/12/17 11:04:18;;;;;;;302.20;274.83;;;;;;;3.62;100.00;101533.13;4957513;29;20125;-76
2021/12/17 11:06:53;;;;;;;285.63;259.67;;;;;;;3.64;100.00;101538.25;4958321;28;20566;-80
2021/12/17 11:09:45;;;;;;;285.70;259.13;;;;;;;3.60;100.00;101535.09;4960330;28;20062;-79
2021/12/17 11:12:28;;;;;;;273.90;250.63;;;;;;;3.55;100.00;101534.66;4961250;28;20113;-78
2021/12/17 11:15:05;;;;;;;279.33;254.43;;;;;;;3.61;100.00;101534.13;4953364;29;20078;-79
2021/12/17 11:17:31;;;;;;;286.00;260.63;;;;;;;3.55;100.00;101525.97;4959823;28;20134;-80
2021/12/17 11:20:02;;;;;;;289.90;265.20;;;;;;;3.56;100.00;101523.19;4959967;28;20051;-78
2021/12/17 11:22:30;;;;;;;308.48;281.60;;;;;;;3.56;100.00;101525.00;4956282;28;20070;-78
2021/12/17 11:25:00;;;;;;;271.25;247.85;;;;;;;3.54;100.00;101526.91;4960141;28;20083;-80
2021/12/17 11:27:27;;;;;;;264.77;240.55;;;;;;;3.54;100.00;101517.25;4957565;28;20119;-80
2021/12/17 11:29:55;;;;;;;279.27;254.35;;;;;;;3.55;100.00;101513.66;4962361;28;20051;-78
2021/12/17 11:32:21;;;;;;;279.38;253.27;;;;;;;3.54;100.00;101500.66;4951791;28;20056;-76
2021/12/17 11:34:48;;;;;;;228.40;206.95;;;;;;;3.53;100.00;101496.38;4956889;28;20511;-77
2021/12/17 11:37:16;;;;;;;228.73;208.38;;;;;;;3.55;100.00;101492.66;4961372;28;20123;-76
2021/12/17 11:39:49;;;;;;;213.52;193.98;;;;;;;3.59;100.00;101495.81;4955318;29;20479;-77
2021/12/17 11:42:30;;;;;;;228.38;207.20;;;;;;;3.67;100.00;101483.63;4957995;28;20460;-78
2021/12/17 11:47:43;;;;;;;296.00;266.90;;;;;;;3.67;100.00;101464.41;4962436;28;20058;-78
2021/12/17 11:50:14;;;;;;;290.20;259.33;;;;;;;3.74;100.00;101459.41;4953408;29;20051;-77
2021/12/17 11:52:44;;;;;;;274.85;248.27;;;;;;;3.68;100.00;101463.44;4956522;28;20051;-79
2021/12/17 11:55:27;;;;;;;255.73;230.40;;;;;;;3.61;100.00;101455.31;4947339;28;20056;-80
2021/12/17 11:57:58;;;;;;;270.55;243.73;;;;;;;3.70;100.00;101452.78;4956959;29;20047;-77
2021/12/17 12:00:31;;;;;;;290.10;263.13;;;;;;;3.71;100.00;101438.69;4958447;28;20051;-80
2021/12/17 12:03:15;;;;;;;282.88;256.50;;;;;;;3.75;100.00;101437.41;4956160;28;20117;-77
2021/12/17 12:05:44;;;;;;;322.63;289.33;;;;;;;3.74;100.00;101433.13;4954881;28;20055;-81
2021/12/17 12:08:31;;;;;;;274.00;248.95;;;;;;;3.76;100.00;101431.19;4958498;28;20059;-80
2021/12/17 12:11:11;;;;;;;298.45;271.08;;;;;;;3.75;100.00;101429.53;4955181;29;20058;-80
2021/12/17 12:13:41;;;;;;;294.13;267.52;;;;;;;3.74;100.00;101420.81;4958554;28;20055;-80
2021/12/17 12:16:09;;;;;;;274.50;252.55;;;;;;;3.68;100.00;101426.66;4960721;28;20113;-79
2021/12/17 12:18:41;;;;;;;287.77;265.02;;;;;;;3.67;100.00;101423.19;4957098;28;21881;-78
2021/12/17 12:21:08;;;;;;;267.20;245.85;;;;;;;3.64;100.00;101425.28;4957473;28;20121;-80
2021/12/17 12:23:56;;;;;;;242.80;223.20;;;;;;;3.67;100.00;101425.00;4958621;28;20114;-79
2021/12/17 12:26:41;;;;;;;270.30;249.05;;;;;;;3.70;100.00;101416.00;4966350;28;20051;-78
2021/12/17 12:29:11;;;;;;;279.75;257.10;;;;;;;3.63;100.00;101426.25;4955078;28;20392;-77
2021/12/17 12:32:06;;;;;;;272.17;250.20;;;;;;;3.62;100.00;101416.72;4955274;28;20079;-77
2021/12/17 12:34:39;;;;;;;279.63;256.20;;;;;;;3.65;100.00;101419.06;4955657;28;20496;-79
2021/12/17 12:37:25;;;;;;;295.50;271.05;;;;;;;3.63;100.00;101427.09;4957336;28;20494;-80
2021/12/17 12:40:21;;;;;;;259.65;234.95;;;;;;;3.65;100.00;101416.44;4956523;28;20101;-79
2021/12/17 12:42:54;;;;;;;300.05;271.42;;;;;;;3.67;100.00;101409.25;4955429;29;20106;-80
2021/12/17 12:45:23;;;;;;;308.15;281.65;;;;;;;3.67;100.00;101417.13;4957589;28;20055;-80
2021/12/17 12:47:55;;;;;;;328.05;300.20;;;;;;;3.71;100.00;101423.75;4960283;28;20057;-81
2021/12/17 12:50:25;;;;;;;282.88;258.33;;;;;;;3.73;100.00;101431.50;4957318;28;20054;-80
2021/12/17 12:52:58;;;;;;;300.17;275.90;;;;;;;3.73;100.00;101437.56;4954610;29;20063;-80
2021/12/17 12:55:29;;;;;;;287.02;263.42;;;;;;;3.81;100.00;101442.09;4956782;28;20047;-79
2021/12/17 12:58:06;;;;;;;277.88;253.65;;;;;;;3.85;100.00;101449.56;4955937;28;20043;-80
2021/12/17 13:00:37;;;;;;;294.10;269.63;;;;;;;3.84;100.00;101449.69;4954356;28;20047;-80
2021/12/17 13:03:11;;;;;;;278.40;255.27;;;;;;;3.81;100.00;101448.19;4959383;29;20078;-79
2021/12/17 13:05:39;;;;;;;282.60;259.08;;;;;;;3.83;100.00;101435.72;4955143;28;20070;-79
2021/12/17 13:08:11;;;;;;;268.90;246.48;;;;;;;3.89;100.00;101443.03;4964168;28;20105;-77
2021/12/17 13:10:39;;;;;;;275.73;253.00;;;;;;;3.90;100.00;101443.84;4955314;28;20403;-79
2021/12/17 13:13:17;;;;;;;252.50;230.82;;;;;;;3.89;100.00;101445.66;4965265;28;20460;-80
2021/12/17 13:16:07;;;;;;;286.25;260.02;;;;;;;3.86;100.00;101440.69;4953676;29;20089;-80
2021/12/17 13:21:35;;;;;;;289.98;265.58;;;;;;;3.86;100.00;101447.75;4951745;29;20054;-78
2021/12/17 13:24:12;;;;;;;303.75;277.33;;;;;;;3.79;100.00;101437.00;4957401;28;20047;-78
2021/12/17 13:26:43;;;;;;;246.55;225.13;;;;;;;3.81;100.00;101424.53;4964155;28;20051;-76
2021/12/17 13:29:14;;;;;;;245.88;224.43;;;;;;;3.68;100.00;101419.59;4957436;28;20047;-78
2021/12/17 13:31:51;;;;;;;301.63;274.13;;;;;;;3.76;100.00;101431.19;4954263;28;20057;-80
2021/12/17 13:34:22;;;;;;;269.40;246.05;;;;;;;3.76;100.00;101434.66;4954996;29;20382;-81
2021/12/17 13:37:02;;;;;;;280.83;256.77;;;;;;;3.73;100.00;101428.88;4949581;29;20484;-78
2021/12/17 13:39:33;;;;;;;275.05;251.57;;;;;;;3.74;100.00;101431.34;4951113;29;20047;-79